createdAt,value
2022-12-01T00:01:44.014Z,95.22
2022-12-01T00:04:12.388Z,105.40
2022-12-01T00:06:40.679Z,100.40
2022-12-01T00:09:28.955Z,102.35
2022-12-01T00:11:57.314Z,108.25
2022-12-01T00:14:29.261Z,110.60
2022-12-01T00:16:57.646Z,107.20
2022-12-01T00:19:26.380Z,99.70
2022-12-01T00:21:55.055Z,102.90
2022-12-01T00:24:24.597Z,108.25
2022-12-01T00:26:52.991Z,103.50
2022-12-01T00:29:21.348Z,103.05
2022-12-01T00:31:52.873Z,109.70
2022-12-01T00:34:24.682Z,102.60
2022-12-01T00:39:22.435Z,101.30
2022-12-01T00:41:50.795Z,103.40
2022-12-01T00:44:19.139Z,104.55
2022-12-01T00:46:47.466Z,105.70
2022-12-01T00:49:19.663Z,107.40
2022-12-01T00:51:47.980Z,110.00
2022-12-01T00:54:18.888Z,106.38
2022-12-01T00:56:47.157Z,94.85
2022-12-01T00:59:15.664Z,96.63
2022-12-01T01:01:46.754Z,104.27
2022-12-01T01:04:15.179Z,95.95
2022-12-01T01:06:44.946Z,99.78
2022-12-01T01:09:14.082Z,105.72
2022-12-01T01:11:43.033Z,101.18
2022-12-01T01:14:11.814Z,101.22
2022-12-01T01:16:42.525Z,101.32
2022-12-01T01:19:14.122Z,101.80
2022-12-01T01:21:42.422Z,103.15
2022-12-01T01:24:14.272Z,102.95
2022-12-01T01:26:42.606Z,100.20
2022-12-01T01:29:11.080Z,98.65
2022-12-01T01:31:39.818Z,105.68
2022-12-01T01:34:10.716Z,96.67
2022-12-01T01:36:39.098Z,96.03
2022-12-01T01:39:07.424Z,94.82
2022-12-01T01:41:37.201Z,100.60
2022-12-01T01:44:20.971Z,95.72
2022-12-01T01:46:49.349Z,100.28
2022-12-01T01:49:17.697Z,95.30
2022-12-01T01:51:50.514Z,98.15
2022-12-01T01:54:21.853Z,100.68
2022-12-01T01:56:54.375Z,100.97
2022-12-01T01:59:25.553Z,96.75
2022-12-01T02:02:01.677Z,94.47
2022-12-01T02:04:30.809Z,98.20
2022-12-01T02:06:59.262Z,90.57
2022-12-01T02:09:30.998Z,99.20
2022-12-01T02:12:22.502Z,92.93
2022-12-01T02:15:07.839Z,92.82
2022-12-01T02:17:43.693Z,97.30
2022-12-01T02:20:44.050Z,91.10
2022-12-01T02:23:32.686Z,95.32
2022-12-01T02:26:21.269Z,94.07
2022-12-01T02:29:13.385Z,98.90
2022-12-01T02:31:48.157Z,91.10
2022-12-01T02:34:23.559Z,99.80
2022-12-01T02:36:57.044Z,96.70
2022-12-01T02:39:31.709Z,119.00
2022-12-01T02:42:05.226Z,118.85
2022-12-01T02:44:37.187Z,101.22
2022-12-01T02:47:13.168Z,97.82
2022-12-01T02:49:44.270Z,91.55
2022-12-01T02:52:16.321Z,94.22
2022-12-01T02:54:46.363Z,92.70
2022-12-01T02:57:16.237Z,84.68
2022-12-01T02:59:48.597Z,91.78
2022-12-01T03:02:25.755Z,91.28
2022-12-01T03:05:02.588Z,90.60
2022-12-01T03:15:25.193Z,90.82
2022-12-01T03:18:03.194Z,95.75
2022-12-01T03:20:36.414Z,84.97
2022-12-01T03:23:13.419Z,85.88
2022-12-01T03:25:45.810Z,93.47
2022-12-01T03:28:21.555Z,85.57
2022-12-01T03:30:55.484Z,90.70
2022-12-01T03:33:29.402Z,89.55
2022-12-01T03:36:02.527Z,91.03
2022-12-01T03:38:32.185Z,79.38
2022-12-01T03:43:36.095Z,79.00
2022-12-01T03:46:10.249Z,89.20
2022-12-01T03:48:41.339Z,85.10
2022-12-01T03:51:17.357Z,88.10
2022-12-01T03:53:56.340Z,95.43
2022-12-01T03:56:30.716Z,85.25
2022-12-01T03:59:02.059Z,89.07
2022-12-01T04:01:34.105Z,85.60
2022-12-01T04:04:08.608Z,102.32
2022-12-01T04:06:37.547Z,105.72
2022-12-01T04:09:08.011Z,100.63
2022-12-01T04:11:53.883Z,102.43
2022-12-01T04:14:22.321Z,103.60
2022-12-01T04:16:50.599Z,97.83
2022-12-01T04:19:20.281Z,85.55
2022-12-01T04:21:48.727Z,87.65
2022-12-01T04:24:17.181Z,86.60
2022-12-01T04:26:46.170Z,81.90
2022-12-01T04:29:15.075Z,83.32
2022-12-01T04:31:43.433Z,84.22
2022-12-01T04:36:41.742Z,68.78
2022-12-01T08:00:56.164Z,64.45
2022-12-01T08:03:26.940Z,66.90
2022-12-01T08:05:58.760Z,68.03
2022-12-01T08:08:27.942Z,68.07
2022-12-01T08:11:01.263Z,66.25
2022-12-01T08:13:31.367Z,64.07
2022-12-01T08:16:05.397Z,70.75
2022-12-01T08:18:36.053Z,71.57
2022-12-01T08:21:05.173Z,74.20
2022-12-01T08:23:33.577Z,82.35
2022-12-01T08:26:05.329Z,73.28
2022-12-01T08:28:37.385Z,69.47
2022-12-01T08:31:10.600Z,71.75
2022-12-01T08:33:41.460Z,75.88
2022-12-01T08:36:10.375Z,78.38
2022-12-01T08:38:38.872Z,67.75
2022-12-01T08:41:09.391Z,68.82
2022-12-01T08:46:30.023Z,66.90
2022-12-01T08:49:01.049Z,72.13
2022-12-01T08:51:29.964Z,67.15
2022-12-01T08:53:59.649Z,69.70
2022-12-01T08:56:29.877Z,71.07
2022-12-01T08:58:59.946Z,64.32
2022-12-01T09:01:29.005Z,68.80
2022-12-01T09:04:07.644Z,73.35
2022-12-01T09:06:40.595Z,74.93
2022-12-01T09:09:12.730Z,67.78
2022-12-01T09:11:43.669Z,68.32
2022-12-01T09:14:14.017Z,70.00
2022-12-01T09:16:46.190Z,68.05
2022-12-01T09:19:24.076Z,89.00
2022-12-01T09:21:53.911Z,73.00
2022-12-01T09:24:22.355Z,66.10
2022-12-01T09:26:51.181Z,69.82
2022-12-01T09:29:20.924Z,68.82
2022-12-01T09:31:49.333Z,66.72
2022-12-01T09:34:19.823Z,74.40
2022-12-01T09:36:49.103Z,74.22
2022-12-01T09:39:21.217Z,71.93
2022-12-01T09:41:53.071Z,88.85
2022-12-01T09:44:32.697Z,77.47
2022-12-01T09:47:08.550Z,79.35
2022-12-01T09:49:45.465Z,72.45
2022-12-01T09:52:16.002Z,73.93
2022-12-01T09:54:44.827Z,70.47
2022-12-01T09:57:19.049Z,72.72
2022-12-01T09:59:49.020Z,77.60
2022-12-01T10:02:30.599Z,70.32
2022-12-01T10:05:02.671Z,98.68
2022-12-01T10:07:35.117Z,78.57
2022-12-01T10:10:06.640Z,87.47
2022-12-01T10:12:37.139Z,79.88
2022-12-01T10:15:22.339Z,75.53
2022-12-01T10:18:00.976Z,75.68
2022-12-01T10:20:37.844Z,69.43
2022-12-01T10:23:30.475Z,65.65
2022-12-01T10:26:00.333Z,72.45
2022-12-01T10:28:53.844Z,73.68
2022-12-01T10:31:32.660Z,78.72
2022-12-01T10:34:03.397Z,71.72
2022-12-01T10:36:33.941Z,69.13
2022-12-01T10:39:07.854Z,79.85
2022-12-01T10:44:08.294Z,67.00
2022-12-01T10:46:44.653Z,79.07
2022-12-01T10:49:14.539Z,72.60
2022-12-01T10:51:52.265Z,72.10
2022-12-01T10:54:23.718Z,78.68
2022-12-01T10:56:57.254Z,80.93
2022-12-01T10:59:31.367Z,77.53
2022-12-01T11:02:03.440Z,72.55
2022-12-01T11:04:46.243Z,70.22
2022-12-01T11:07:20.363Z,72.35
2022-12-01T11:10:17.295Z,81.07
2022-12-01T11:12:53.405Z,72.22
2022-12-01T11:15:27.824Z,70.18
2022-12-01T11:18:02.999Z,68.70
2022-12-01T11:20:35.883Z,70.78
2022-12-01T11:23:26.436Z,76.80
2022-12-01T11:26:02.110Z,66.25
2022-12-01T11:28:32.554Z,69.28
2022-12-01T11:31:05.259Z,73.13
2022-12-01T11:33:43.912Z,66.63
2022-12-01T11:36:20.229Z,69.78
2022-12-01T11:38:48.928Z,60.42
2022-12-01T11:41:29.582Z,64.28
2022-12-01T11:44:01.920Z,60.92
2022-12-01T11:46:42.699Z,70.38
2022-12-01T11:49:20.966Z,71.35
2022-12-01T11:51:49.391Z,82.10
2022-12-01T11:54:20.611Z,75.13
2022-12-01T11:57:17.326Z,78.78
2022-12-01T11:59:38.857Z,77.28
2022-12-01T12:02:19.989Z,92.57
2022-12-01T12:05:14.861Z,92.65
2022-12-01T12:07:51.065Z,87.20
2022-12-01T12:10:35.840Z,80.82
2022-12-01T12:13:17.640Z,75.00
2022-12-01T12:15:57.489Z,65.93
2022-12-01T12:18:45.491Z,69.15
2022-12-01T12:21:26.429Z,67.70
2022-12-01T12:24:18.266Z,70.30
2022-12-01T12:26:56.738Z,65.47
2022-12-01T12:29:42.285Z,68.35
2022-12-01T12:32:29.754Z,74.47
2022-12-01T12:35:07.723Z,64.13
2022-12-01T12:37:44.674Z,66.63
2022-12-01T12:40:46.928Z,68.95
2022-12-01T12:43:30.497Z,62.75
2022-12-01T12:46:07.455Z,62.90
2022-12-01T12:49:19.304Z,65.68
2022-12-01T12:51:55.727Z,63.25
2022-12-01T12:54:31.783Z,63.35
2022-12-01T12:57:07.255Z,58.25
2022-12-01T12:59:44.082Z,63.28
2022-12-01T13:02:16.776Z,50.53
2022-12-01T13:04:55.215Z,59.05
2022-12-01T13:07:33.623Z,60.97
2022-12-01T13:10:10.403Z,56.78
2022-12-01T13:12:44.704Z,65.55
2022-12-01T13:15:17.518Z,65.00
2022-12-01T13:17:50.037Z,66.43
2022-12-01T13:20:21.046Z,68.60
2022-12-01T13:22:50.244Z,66.55
2022-12-01T13:25:28.958Z,74.38
2022-12-01T13:28:00.607Z,75.63
2022-12-01T13:30:29.141Z,81.97
2022-12-01T13:33:03.302Z,77.03
2022-12-01T13:35:34.043Z,78.78
2022-12-01T13:38:22.965Z,75.57
2022-12-01T13:41:21.751Z,86.47
2022-12-01T13:43:58.176Z,72.28
2022-12-01T13:46:30.728Z,81.57
2022-12-01T13:49:00.781Z,78.32
2022-12-01T13:52:09.310Z,87.88
2022-12-01T13:54:39.082Z,85.07
2022-12-01T13:57:29.675Z,86.18
2022-12-01T14:00:21.253Z,81.22
2022-12-01T14:03:29.957Z,80.78
2022-12-01T14:06:08.968Z,81.00
2022-12-01T14:08:38.885Z,89.90
2022-12-01T14:11:19.400Z,77.28
2022-12-01T14:13:52.996Z,75.65
2022-12-01T14:16:22.519Z,72.93
2022-12-01T14:18:53.293Z,76.25
2022-12-01T14:21:46.836Z,80.32
2022-12-01T14:24:25.439Z,82.57
2022-12-01T14:26:55.922Z,77.47
2022-12-01T14:29:33.099Z,81.10
2022-12-01T14:32:23.130Z,79.80
2022-12-01T14:35:12.298Z,90.45
2022-12-01T14:37:50.646Z,80.13
2022-12-01T14:40:31.517Z,81.60
2022-12-01T14:43:19.607Z,77.88
2022-12-01T14:45:56.304Z,90.25
2022-12-01T14:48:33.444Z,82.28
2022-12-01T14:51:14.941Z,81.78
2022-12-01T14:53:46.354Z,80.68
2022-12-01T14:56:18.726Z,79.32
2022-12-01T14:58:56.858Z,78.63
2022-12-01T15:01:26.947Z,75.70
2022-12-01T15:04:00.917Z,80.18
2022-12-01T15:06:33.334Z,80.22
2022-12-01T15:09:32.909Z,82.22
2022-12-01T15:12:02.460Z,83.80
2022-12-01T15:14:34.728Z,79.85
2022-12-01T15:17:05.354Z,82.00
2022-12-01T15:19:37.911Z,72.57
2022-12-01T15:22:13.599Z,80.88
2022-12-01T15:24:42.359Z,72.57
2022-12-01T15:27:26.409Z,69.85
2022-12-01T15:30:03.264Z,64.47
2022-12-01T15:32:33.588Z,71.55
2022-12-01T15:35:04.681Z,63.75
2022-12-01T15:37:42.339Z,69.68
2022-12-01T15:41:06.192Z,71.00
2022-12-01T15:43:15.557Z,61.80
2022-12-01T15:45:49.600Z,65.50
2022-12-01T15:48:25.500Z,61.67
2022-12-01T15:51:07.528Z,65.75
2022-12-01T15:53:38.460Z,68.13
2022-12-01T15:56:09.730Z,62.08
2022-12-01T15:58:44.626Z,68.47
2022-12-01T16:01:17.136Z,61.58
2022-12-01T16:03:55.658Z,62.03
2022-12-01T16:06:26.476Z,60.90
2022-12-01T16:09:01.146Z,63.53
2022-12-01T16:11:29.744Z,64.50
2022-12-01T16:14:05.217Z,66.60
2022-12-01T16:16:43.408Z,67.32
2022-12-01T16:19:27.557Z,69.65
2022-12-01T16:22:02.944Z,64.03
2022-12-01T16:24:33.763Z,70.07
2022-12-01T16:27:04.653Z,71.57
2022-12-01T16:29:36.667Z,66.13
2022-12-01T16:32:21.853Z,62.10
2022-12-01T16:34:52.583Z,66.07
2022-12-01T16:37:21.637Z,67.10
2022-12-01T16:39:50.027Z,64.35
2022-12-01T16:42:21.736Z,68.72
2022-12-01T16:47:21.790Z,63.80
2022-12-01T16:49:53.307Z,60.88
2022-12-01T16:52:43.606Z,67.55
2022-12-01T16:55:28.128Z,61.00
2022-12-01T16:57:56.785Z,64.32
2022-12-01T17:00:25.217Z,64.43
2022-12-01T17:02:54.940Z,63.00
2022-12-01T17:05:23.309Z,67.13
2022-12-01T17:07:52.060Z,57.75
2022-12-01T17:10:21.843Z,62.92
2022-12-01T17:12:51.398Z,57.03
2022-12-01T17:15:20.029Z,62.47
2022-12-01T17:17:48.510Z,62.95
2022-12-01T17:20:18.365Z,63.20
2022-12-01T17:22:48.900Z,63.85
2022-12-01T17:25:17.239Z,60.80
2022-12-01T18:34:53.251Z,62.25
2022-12-01T18:37:21.694Z,58.70
2022-12-01T18:39:50.122Z,68.40
2022-12-01T18:42:20.569Z,63.20
2022-12-01T18:44:52.922Z,60.77
2022-12-01T18:47:21.427Z,60.88
2022-12-01T18:49:49.796Z,64.15
2022-12-01T18:52:18.054Z,58.03
2022-12-01T18:54:46.441Z,52.67
2022-12-01T18:57:14.842Z,59.97
2022-12-01T19:02:12.915Z,58.83
2022-12-01T23:59:17.050Z,53.08
